Time;durP1;ratioP1;P1;durP2;ratioP2;P2;SDS_P1;SDS_P2;PMS_P1;PMS_P2;Temp;Humidity;BMP_temperature;BMP_pressure;BME280_temperature;BME280_humidity;BME280_pressure;Samples;Min_cycle;Max_cycle;Signal;HPM_P1;HPM_P2
2021/10/23 00:00:42;;;;;;;10.88;0.82;;;;;;;6.70;46.14;101968.47;5077756;28;20127;-71
2021/10/23 00:03:08;;;;;;;4.13;0.15;;;;;;;6.86;45.53;101982.22;5059021;28;20040;-68
2021/10/23 00:05:35;;;;;;;3.25;0.20;;;;;;;7.08;45.01;101982.91;5060700;28;20082;-69
2021/10/23 00:08:01;;;;;;;6.97;0.40;;;;;;;6.75;45.98;101984.88;5051299;28;20051;-69
2021/10/23 00:10:26;;;;;;;8.57;0.50;;;;;;;6.74;45.98;101985.75;5063796;28;20615;-69
2021/10/23 00:12:52;;;;;;;6.95;0.52;;;;;;;6.70;46.33;101981.44;5072945;28;20119;-68
2021/10/23 00:15:17;;;;;;;9.05;0.40;;;;;;;6.67;46.68;101984.06;5078899;28;20367;-70
2021/10/23 00:17:43;;;;;;;3.50;0.28;;;;;;;6.74;45.97;101987.50;5073349;28;20531;-68
2021/10/23 00:20:09;;;;;;;6.10;0.65;;;;;;;6.69;46.68;101992.72;5076418;28;20537;-69
2021/10/23 00:22:35;;;;;;;11.80;0.73;;;;;;;6.77;46.44;101992.66;5060364;28;20044;-69
2021/10/23 00:25:00;;;;;;;7.70;0.28;;;;;;;6.60;47.12;102000.56;5061522;28;20048;-68
2021/10/23 00:27:27;;;;;;;12.80;0.55;;;;;;;6.70;46.73;102005.69;5056937;28;20040;-68
2021/10/23 00:29:53;;;;;;;13.60;0.65;;;;;;;6.74;46.75;102009.16;5060690;28;20066;-68
2021/10/23 00:32:19;;;;;;;11.43;0.30;;;;;;;6.76;47.12;102017.78;5072192;28;20429;-69
2021/10/23 00:34:44;;;;;;;6.03;0.30;;;;;;;6.82;47.36;102020.38;5040525;28;20028;-68
2021/10/23 00:37:10;;;;;;;7.70;0.40;;;;;;;6.77;47.44;102024.72;5044605;28;20517;-69
2021/10/23 00:39:36;;;;;;;7.18;0.25;;;;;;;6.91;47.18;102025.50;5077526;28;20068;-68
2021/10/23 00:42:01;;;;;;;4.35;0.40;;;;;;;6.78;47.96;102021.25;5077882;28;20058;-68
2021/10/23 00:44:35;;;;;;;6.22;0.30;;;;;;;6.91;47.82;102028.09;5059656;28;20375;-69
2021/10/23 00:47:03;;;;;;;5.05;0.38;;;;;;;6.86;47.78;102029.00;5076943;28;20048;-68
2021/10/23 00:49:29;;;;;;;4.53;0.35;;;;;;;6.97;47.62;102026.34;5061104;28;20391;-69
2021/10/23 00:51:57;;;;;;;7.53;0.38;;;;;;;7.00;47.97;102023.69;5061252;28;20071;-69
2021/10/23 00:54:23;;;;;;;6.88;0.43;;;;;;;6.94;48.21;102021.16;5050797;28;20039;-69
2021/10/23 00:56:49;;;;;;;5.80;0.50;;;;;;;6.85;48.28;102022.94;5064724;28;20060;-69
2021/10/23 00:59:14;;;;;;;5.93;0.32;;;;;;;6.94;48.16;102031.56;5066072;28;20664;-68
2021/10/23 01:01:40;;;;;;;10.80;0.63;;;;;;;6.76;48.74;102030.78;5062259;28;20028;-69
2021/10/23 01:04:05;;;;;;;9.60;0.95;;;;;;;6.93;47.79;102030.66;5062524;28;20079;-68
2021/10/23 01:06:31;;;;;;;5.78;0.77;;;;;;;6.82;47.82;102035.06;5075973;28;20027;-67
2021/10/23 01:08:58;;;;;;;14.40;0.60;;;;;;;6.78;47.96;102036.84;5057253;28;20052;-67
2021/10/23 01:11:26;;;;;;;6.25;0.90;;;;;;;6.67;47.83;102038.63;5079550;28;20044;-68
2021/10/23 01:13:52;;;;;;;2.55;0.17;;;;;;;6.50;48.50;102044.75;5065698;28;20040;-68
2021/10/23 01:16:17;;;;;;;8.40;1.63;;;;;;;6.42;48.37;102049.13;5045660;28;20676;-69
2021/10/23 01:18:44;;;;;;;6.63;0.60;;;;;;;6.27;49.11;102055.19;5055537;28;20070;-68
2021/10/23 01:21:10;;;;;;;6.35;0.28;;;;;;;6.16;49.73;102046.59;5053832;28;20063;-68
2021/10/23 01:23:35;;;;;;;6.85;0.68;;;;;;;6.13;49.75;102054.38;5041773;28;20051;-69
2021/10/23 01:26:02;;;;;;;6.28;0.57;;;;;;;6.06;50.31;102055.25;5075487;28;20097;-68
2021/10/23 01:28:27;;;;;;;10.63;0.82;;;;;;;5.91;50.69;102056.16;5058326;28;20038;-69
2021/10/23 01:30:57;;;;;;;5.97;2.15;;;;;;;5.92;50.98;102057.03;5077480;28;20040;-67
2021/10/23 01:33:22;;;;;;;6.10;0.40;;;;;;;6.04;50.35;102073.44;5044271;28;20036;-68
2021/10/23 01:35:48;;;;;;;11.40;0.70;;;;;;;5.90;50.71;102080.38;5064625;28;20618;-68
2021/10/23 01:38:14;;;;;;;9.43;1.20;;;;;;;5.72;51.28;102090.75;5062994;28;20814;-67
2021/10/23 01:40:40;;;;;;;13.27;0.68;;;;;;;5.83;50.99;102100.25;5058154;28;20082;-68
2021/10/23 01:43:05;;;;;;;10.65;0.75;;;;;;;6.02;50.54;102101.13;5064952;28;20490;-68
2021/10/23 01:45:33;;;;;;;9.85;0.45;;;;;;;5.61;51.29;102112.41;5055903;28;20039;-69
2021/10/23 01:47:59;;;;;;;4.38;0.45;;;;;;;5.94;50.36;102100.25;5076278;28;20052;-69
2021/10/23 01:50:27;;;;;;;11.13;0.60;;;;;;;6.28;48.91;102092.44;5062525;28;20050;-69
2021/10/23 01:52:54;;;;;;;5.28;0.68;;;;;;;6.56;48.20;102093.22;5063308;28;20045;-67
2021/10/23 01:55:20;;;;;;;4.72;0.32;;;;;;;6.39;48.27;102085.47;5071874;28;20154;-69
2021/10/23 01:57:47;;;;;;;2.50;0.75;;;;;;;6.43;47.56;102078.56;5072688;28;20045;-69
2021/10/23 02:00:14;;;;;;;10.45;0.40;;;;;;;6.39;47.45;102095.00;5057978;28;20052;-68
2021/10/23 02:02:41;;;;;;;9.20;0.35;;;;;;;6.26;47.79;102083.75;5072970;28;23104;-69
2021/10/23 02:05:08;;;;;;;9.40;0.50;;;;;;;6.36;47.81;102084.66;5058148;28;20064;-67
2021/10/23 02:07:34;;;;;;;2.60;0.30;;;;;;;6.42;47.19;102089.84;5065008;28;20651;-69
2021/10/23 02:09:59;;;;;;;7.25;0.57;;;;;;;6.28;47.64;102092.44;5059690;28;20043;-68
2021/10/23 02:12:25;;;;;;;9.02;1.05;;;;;;;6.07;48.49;102094.19;5046518;28;20075;-68
2021/10/23 02:14:50;;;;;;;0.50;0.10;;;;;;;6.14;47.81;102087.25;5065332;28;20557;-68
2021/10/23 02:17:16;;;;;;;7.30;0.50;;;;;;;6.15;47.70;102082.91;5050843;28;20048;-68
2021/10/23 02:19:42;;;;;;;10.68;0.32;;;;;;;6.10;48.08;102072.53;5059332;28;20028;-69
2021/10/23 02:22:07;;;;;;;3.22;0.30;;;;;;;5.91;48.81;102079.50;5058849;28;20052;-68
2021/10/23 02:24:33;;;;;;;1.80;0.30;;;;;;;5.89;48.52;102089.03;5065259;28;20032;-69
2021/10/23 02:26:58;;;;;;;4.13;0.22;;;;;;;5.65;49.29;102082.13;5055761;28;20040;-67
2021/10/23 02:29:24;;;;;;;2.63;0.40;;;;;;;5.55;49.43;102094.22;5075306;28;20028;-68
2021/10/23 02:31:49;;;;;;;5.75;0.47;;;;;;;5.66;48.92;102082.13;5057241;28;20534;-68
2021/10/23 02:34:14;;;;;;;5.38;0.60;;;;;;;6.04;47.86;102089.00;5078305;28;20028;-68
2021/10/23 02:36:40;;;;;;;5.25;0.50;;;;;;;5.49;49.57;102088.16;5048345;28;20118;-68
2021/10/23 02:39:06;;;;;;;6.32;1.10;;;;;;;5.79;49.40;102087.28;5071629;28;20040;-69
2021/10/23 02:41:32;;;;;;;5.05;0.50;;;;;;;6.01;49.00;102083.81;5058456;28;20052;-69
2021/10/23 02:43:59;;;;;;;7.43;0.65;;;;;;;6.26;48.86;102078.56;5057621;28;20121;-68
2021/10/23 02:46:24;;;;;;;1.92;0.45;;;;;;;6.49;48.32;102079.41;5056108;28;20024;-67
2021/10/23 02:48:50;;;;;;;14.70;0.30;;;;;;;6.14;49.22;102095.03;5073840;28;20040;-69
2021/10/23 02:51:16;;;;;;;6.07;0.60;;;;;;;6.57;48.05;102094.09;5047955;28;20086;-68
2021/10/23 02:53:41;;;;;;;12.77;0.40;;;;;;;6.77;47.41;102097.47;5059726;28;20043;-68
2021/10/23 02:56:07;;;;;;;10.02;0.68;;;;;;;6.83;47.13;102097.44;5056849;28;20550;-69
2021/10/23 02:58:32;;;;;;;8.90;0.57;;;;;;;6.80;47.44;102102.66;5057654;28;20036;-68
2021/10/23 03:00:58;;;;;;;3.75;0.38;;;;;;;6.79;47.48;102116.50;5076939;28;20159;-69
2021/10/23 03:03:23;;;;;;;5.47;0.13;;;;;;;6.88;47.21;102121.66;5065444;28;20116;-68
2021/10/23 03:05:49;;;;;;;6.60;0.47;;;;;;;6.90;47.40;102125.13;5042355;28;20871;-69
2021/10/23 03:08:15;;;;;;;6.43;0.20;;;;;;;7.04;47.08;102121.59;5068898;28;20043;-69
2021/10/23 03:10:42;;;;;;;10.15;0.45;;;;;;;7.16;46.77;102105.94;5063844;28;20050;-69
2021/10/23 03:13:07;;;;;;;8.80;0.43;;;;;;;7.17;46.25;102110.25;5074150;28;20041;-68
2021/10/23 03:15:33;;;;;;;7.00;0.52;;;;;;;7.16;46.46;102111.13;5064599;28;20030;-69
2021/10/23 03:17:58;;;;;;;9.20;0.50;;;;;;;7.11;46.23;102107.72;5072144;28;20044;-68
2021/10/23 03:20:24;;;;;;;2.13;0.40;;;;;;;6.80;46.82;102102.66;5055602;28;20132;-68
2021/10/23 03:22:49;;;;;;;1.10;0.10;;;;;;;6.77;46.50;102109.59;5062510;28;20439;-67
2021/10/23 03:25:15;;;;;;;6.65;0.47;;;;;;;6.72;46.65;102101.81;5073694;28;20067;-68
2021/10/23 03:27:41;;;;;;;4.80;0.20;;;;;;;6.51;47.35;102097.59;5045620;28;20581;-67
2021/10/23 03:30:07;;;;;;;3.15;0.10;;;;;;;6.55;46.89;102101.03;5048663;28;20062;-68
2021/10/23 03:32:33;;;;;;;4.50;0.35;;;;;;;6.36;47.50;102106.28;5039469;28;20065;-69
2021/10/23 03:35:02;;;;;;;2.72;0.13;;;;;;;6.56;46.81;102108.81;5074727;28;20406;-69
2021/10/23 03:37:30;;;;;;;6.00;0.30;;;;;;;6.38;48.06;102107.13;5053276;28;20733;-69
2021/10/23 03:39:57;;;;;;;5.95;0.30;;;;;;;5.98;49.19;102119.31;5049888;28;20032;-68
2021/10/23 03:42:25;;;;;;;4.20;0.30;;;;;;;6.34;48.22;102118.41;5067564;28;20789;-69
2021/10/23 03:44:51;;;;;;;9.32;0.68;;;;;;;6.14;49.32;102131.38;5057880;28;20059;-69
2021/10/23 03:47:16;;;;;;;5.00;0.50;;;;;;;6.20;49.19;102139.16;5066166;28;20041;-69
2021/10/23 03:49:43;;;;;;;6.50;0.35;;;;;;;6.20;48.89;102151.28;5058333;28;20059;-69
2021/10/23 03:52:09;;;;;;;10.95;0.45;;;;;;;6.08;49.55;102158.22;5062476;28;20040;-69
2021/10/23 03:54:34;;;;;;;7.00;0.20;;;;;;;6.02;49.86;102158.22;5077437;28;20032;-67
2021/10/23 03:57:00;;;;;;;3.22;0.52;;;;;;;6.03;49.75;102154.75;5064422;28;20696;-67
2021/10/23 03:59:25;;;;;;;8.18;0.70;;;;;;;6.12;49.30;102158.22;5066838;28;20036;-69
2021/10/23 04:01:51;;;;;;;4.20;0.20;;;;;;;6.12;49.11;102150.44;5059791;28;20108;-69
2021/10/23 04:04:17;;;;;;;9.82;0.40;;;;;;;6.11;49.35;102164.28;5048156;28;20020;-69
2021/10/23 04:06:42;;;;;;;6.40;0.25;;;;;;;6.19;49.72;102165.97;5065997;28;20533;-69
2021/10/23 04:09:08;;;;;;;4.47;0.47;;;;;;;6.06;49.98;102165.16;5080797;28;20449;-68
2021/10/23 04:11:33;;;;;;;4.05;0.30;;;;;;;6.22;49.76;102175.53;5051941;28;20106;-68
2021/10/23 04:13:59;;;;;;;1.98;0.10;;;;;;;6.34;49.78;102180.72;5061429;28;20084;-68
2021/10/23 04:16:24;;;;;;;6.07;0.22;;;;;;;6.09;51.18;102170.31;5052295;28;20035;-66
2021/10/23 04:18:50;;;;;;;0.90;0.10;;;;;;;6.35;50.96;102172.09;5064513;28;20063;-69
2021/10/23 04:21:16;;;;;;;4.47;0.60;;;;;;;6.40;50.97;102179.88;5077020;28;20036;-69
2021/10/23 04:23:41;;;;;;;3.58;0.13;;;;;;;6.61;50.70;102194.53;5068506;28;20705;-69
2021/10/23 04:26:07;;;;;;;4.57;0.35;;;;;;;6.35;51.78;102186.78;5081398;28;20047;-68
2021/10/23 04:28:33;;;;;;;2.63;0.50;;;;;;;6.49;51.72;102183.31;5076423;28;20135;-68
2021/10/23 04:30:58;;;;;;;2.97;0.35;;;;;;;6.31;52.28;102180.75;5064891;28;20032;-68
2021/10/23 04:33:23;;;;;;;4.50;0.73;;;;;;;6.43;52.15;102185.91;5080346;28;20071;-67
2021/10/23 04:35:50;;;;;;;5.50;1.13;;;;;;;6.53;51.38;102193.66;5078883;28;20115;-68
2021/10/23 04:38:16;;;;;;;11.68;0.50;;;;;;;6.51;51.68;102188.50;5079138;28;20066;-68
2021/10/23 04:40:42;;;;;;;9.05;0.50;;;;;;;6.45;51.47;102194.56;5064940;28;20046;-68
2021/10/23 04:43:07;;;;;;;3.47;0.30;;;;;;;5.89;53.38;102203.19;5063068;28;20114;-68
2021/10/23 04:45:33;;;;;;;8.35;0.30;;;;;;;5.99;53.15;102204.91;5060263;28;20058;-69
2021/10/23 04:47:59;;;;;;;6.72;0.40;;;;;;;5.93;53.03;102215.31;5063094;28;20131;-69
2021/10/23 04:50:24;;;;;;;6.35;0.40;;;;;;;5.93;53.01;102225.69;5077808;28;20020;-69
2021/10/23 04:52:50;;;;;;;1.85;0.20;;;;;;;5.47;54.16;102230.78;5074198;28;20760;-69
2021/10/23 04:55:15;;;;;;;6.25;0.60;;;;;;;5.86;53.07;102223.97;5065433;28;20043;-69
2021/10/23 04:57:41;;;;;;;7.78;0.93;;;;;;;5.98;52.51;102228.31;5052491;28;20044;-68
2021/10/23 05:00:07;;;;;;;3.92;0.28;;;;;;;5.97;52.91;102221.38;5077003;28;20151;-69
2021/10/23 05:02:32;;;;;;;1.17;0.13;;;;;;;6.11;52.43;102221.41;5065524;28;20040;-69
2021/10/23 05:04:58;;;;;;;4.05;0.63;;;;;;;6.25;51.96;102230.03;5068264;28;20130;-68
2021/10/23 05:07:23;;;;;;;5.30;0.50;;;;;;;6.24;51.60;102225.72;5061789;28;20070;-67
2021/10/23 05:09:49;;;;;;;4.53;0.65;;;;;;;6.29;51.62;102221.41;5069189;28;20028;-68
2021/10/23 05:12:14;;;;;;;4.55;0.10;;;;;;;6.29;51.70;102224.88;5062949;28;20040;-68
2021/10/23 05:14:40;;;;;;;4.38;0.20;;;;;;;6.20;51.62;102224.00;5076583;28;20074;-68
2021/10/23 05:17:05;;;;;;;2.38;0.20;;;;;;;6.05;51.52;102217.91;5062446;28;20048;-69
2021/10/23 05:19:31;;;;;;;4.43;0.32;;;;;;;5.66;52.80;102227.38;5067195;28;20127;-69
2021/10/23 05:21:57;;;;;;;2.83;0.10;;;;;;;5.76;52.37;102228.25;5081800;28;20115;-68
2021/10/23 05:24:22;;;;;;;5.72;0.20;;;;;;;5.59;52.47;102225.66;5078932;28;20363;-69
2021/10/23 05:26:50;;;;;;;8.93;0.50;;;;;;;5.36;53.36;102233.34;5048778;28;20040;-69
2021/10/23 05:29:15;;;;;;;4.30;0.30;;;;;;;5.42;52.75;102241.16;5063875;28;20085;-69
2021/10/23 05:31:41;;;;;;;2.28;0.13;;;;;;;5.31;52.75;102244.56;5056312;28;20096;-70
2021/10/23 05:34:06;;;;;;;4.68;0.43;;;;;;;5.32;52.34;102238.50;5077699;28;20035;-68
2021/10/23 05:36:32;;;;;;;6.50;0.75;;;;;;;5.13;53.01;102241.03;5078938;28;20032;-68
2021/10/23 05:38:57;;;;;;;7.88;0.50;;;;;;;5.12;52.99;102244.47;5057023;28;20119;-67
2021/10/23 05:41:23;;;;;;;5.63;0.30;;;;;;;4.74;54.33;102246.81;5060848;28;20062;-68
2021/10/23 05:43:48;;;;;;;3.65;0.47;;;;;;;4.59;55.11;102242.41;5050305;28;20051;-70
2021/10/23 05:46:14;;;;;;;4.07;0.45;;;;;;;4.91;54.12;102249.56;5052408;28;20043;-68
2021/10/23 05:48:40;;;;;;;4.25;0.20;;;;;;;4.87;53.81;102258.13;5056448;28;20073;-67
2021/10/23 05:51:05;;;;;;;4.28;0.60;;;;;;;4.90;53.59;102253.00;5075295;28;20473;-70
2021/10/23 05:53:31;;;;;;;4.63;0.73;;;;;;;4.81;54.02;102259.84;5061367;28;20036;-67
2021/10/23 05:55:56;;;;;;;11.32;0.90;;;;;;;4.93;53.60;102265.97;5075577;28;20042;-68
2021/10/23 05:58:22;;;;;;;3.50;0.30;;;;;;;4.98;53.78;102266.88;5025272;28;20072;-68
2021/10/23 06:00:54;;;;;;;3.60;0.30;;;;;;;5.08;53.80;102275.53;5055469;28;20040;-66
2021/10/23 06:03:20;;;;;;;;;;;;;;;5.22;53.58;102287.72;5046820;28;20033;-68
2021/10/23 06:05:46;;;;;;;6.28;0.77;;;;;;;5.32;53.65;102295.53;5051022;28;19923;-67
2021/10/23 06:08:13;;;;;;;4.53;0.57;;;;;;;5.13;54.05;102298.06;5058041;28;20453;-67
2021/10/23 06:10:38;;;;;;;3.63;0.20;;;;;;;5.27;54.04;102300.72;5048162;28;20042;-68
2021/10/23 06:13:04;;;;;;;7.35;0.30;;;;;;;5.40;53.73;102297.31;5079934;28;20039;-67
2021/10/23 06:15:29;;;;;;;8.93;0.77;;;;;;;5.55;53.41;102299.13;5061498;28;20040;-67
2021/10/23 06:17:54;;;;;;;9.85;0.40;;;;;;;5.20;54.33;102288.59;5056885;28;20048;-68
2021/10/23 06:20:20;;;;;;;3.40;0.55;;;;;;;5.56;53.31;102297.38;5063692;28;20090;-69
2021/10/23 06:22:53;;;;;;;4.97;0.50;;;;;;;5.76;53.37;102300.91;5044788;28;20055;-67
2021/10/23 06:25:19;;;;;;;7.65;0.50;;;;;;;5.62;53.57;102300.00;5077280;28;20032;-69
2021/10/23 06:27:45;;;;;;;5.07;0.40;;;;;;;5.78;52.94;102299.19;5057519;28;20045;-68
2021/10/23 06:30:12;;;;;;;5.32;0.30;;;;;;;5.39;53.67;102315.44;5076288;28;20032;-69
2021/10/23 06:32:52;;;;;;;4.15;0.55;;;;;;;5.85;52.66;102323.41;5060207;28;20070;-67
2021/10/23 06:35:19;;;;;;;5.63;0.50;;;;;;;5.85;52.83;102320.81;5069449;28;20039;-68
2021/10/23 06:37:45;;;;;;;9.20;0.65;;;;;;;5.70;52.89;102332.00;5078395;28;20131;-68
2021/10/23 06:40:11;;;;;;;7.18;0.52;;;;;;;5.75;52.68;102324.25;5077090;28;20128;-67
2021/10/23 06:42:41;;;;;;;5.75;0.25;;;;;;;5.81;52.69;102329.47;5045560;28;20068;-67
2021/10/23 06:45:14;;;;;;;9.07;1.15;;;;;;;5.86;52.90;102335.56;5075545;28;20032;-67
2021/10/23 06:47:41;;;;;;;6.28;0.57;;;;;;;6.04;52.51;102334.72;5073857;28;20621;-68
2021/10/23 06:50:08;;;;;;;4.65;0.32;;;;;;;6.17;52.63;102339.09;5076392;28;20028;-68
2021/10/23 06:52:34;;;;;;;11.70;1.27;;;;;;;6.20;52.46;102338.22;5071777;28;20444;-68
2021/10/23 06:55:00;;;;;;;5.10;0.45;;;;;;;6.36;52.17;102342.59;5075827;28;20040;-68
2021/10/23 06:57:26;;;;;;;2.35;0.25;;;;;;;6.48;51.41;102346.94;5058521;28;20406;-67
2021/10/23 06:59:52;;;;;;;2.00;0.52;;;;;;;6.35;51.76;102353.88;5061512;28;20037;-66
2021/10/23 07:02:17;;;;;;;3.03;0.32;;;;;;;6.46;51.78;102354.75;5063893;28;20055;-68
2021/10/23 07:04:42;;;;;;;1.05;0.15;;;;;;;6.46;51.76;102361.66;5064576;28;20036;-68
2021/10/23 07:07:09;;;;;;;4.22;0.40;;;;;;;6.49;51.47;102378.09;5078075;28;20086;-68
2021/10/23 07:09:35;;;;;;;8.00;0.40;;;;;;;6.57;51.86;102391.09;5069989;28;20035;-69
2021/10/23 07:12:02;;;;;;;4.38;0.32;;;;;;;6.82;51.29;102402.38;5043645;28;20036;-67
2021/10/23 07:14:28;;;;;;;1.20;0.43;;;;;;;6.83;51.37;102404.09;5075806;28;20028;-69
2021/10/23 07:16:53;;;;;;;5.68;0.20;;;;;;;7.38;50.55;102420.53;5076849;28;20538;-69
2021/10/23 07:19:19;;;;;;;3.72;0.30;;;;;;;7.46;50.21;102417.03;5049590;28;20530;-68
2021/10/23 07:21:44;;;;;;;8.00;0.38;;;;;;;7.60;49.61;102411.84;5076599;28;20028;-68
2021/10/23 07:24:10;;;;;;;6.88;0.57;;;;;;;8.13;49.43;102413.34;5082521;28;20037;-69
2021/10/23 07:26:36;;;;;;;4.07;1.25;;;;;;;8.61;48.92;102417.44;5058972;28;20776;-69
2021/10/23 07:29:05;;;;;;;6.00;0.32;;;;;;;10.13;46.68;102419.41;5074188;28;20043;-67
2021/10/23 07:31:31;;;;;;;4.03;0.30;;;;;;;10.19;43.63;102427.16;5062480;28;20057;-69
2021/10/23 07:33:57;;;;;;;5.40;0.25;;;;;;;9.29;44.80;102429.03;5057654;28;20049;-69
2021/10/23 07:36:23;;;;;;;5.30;0.50;;;;;;;9.19;46.11;102448.28;5077918;28;20043;-68
2021/10/23 07:38:49;;;;;;;7.53;0.68;;;;;;;10.11;44.43;102451.66;5061648;28;20052;-68
2021/10/23 07:41:16;;;;;;;3.95;0.30;;;;;;;9.71;44.87;102447.72;5063265;28;20039;-70
2021/10/23 07:43:42;;;;;;;4.40;0.47;;;;;;;9.39;44.50;102451.56;5068279;28;20040;-69
2021/10/23 07:46:07;;;;;;;7.38;0.30;;;;;;;9.06;45.71;102462.31;5080979;28;20029;-69
2021/10/23 07:48:35;;;;;;;6.45;0.35;;;;;;;8.35;47.73;102462.75;5073436;28;20043;-69
2021/10/23 07:51:02;;;;;;;3.53;0.50;;;;;;;8.17;48.27;102470.66;5082707;28;20742;-67
2021/10/23 07:53:28;;;;;;;2.63;0.38;;;;;;;7.82;49.22;102471.63;5063225;28;20097;-69
2021/10/23 07:55:53;;;;;;;7.07;0.32;;;;;;;10.08;45.75;102470.84;5078316;28;20035;-69
2021/10/23 07:58:19;;;;;;;3.72;0.30;;;;;;;10.95;42.13;102476.63;5065132;28;20082;-69
2021/10/23 08:00:44;;;;;;;2.63;0.32;;;;;;;10.64;43.57;102473.56;5067593;28;20493;-67
2021/10/23 08:03:10;;;;;;;1.05;0.20;;;;;;;10.58;44.10;102476.28;5078514;28;20477;-68
2021/10/23 08:05:37;;;;;;;4.05;0.17;;;;;;;10.55;43.51;102477.19;5078652;28;20236;-70
2021/10/23 08:08:05;;;;;;;2.92;0.25;;;;;;;10.92;43.00;102487.09;5073728;28;20047;-66
2021/10/23 08:10:33;;;;;;;5.82;0.20;;;;;;;10.88;42.11;102480.19;5055481;28;20033;-68
2021/10/23 08:13:00;;;;;;;5.00;0.30;;;;;;;10.86;42.94;102488.94;5076012;28;20062;-67
2021/10/23 08:15:27;;;;;;;1.95;0.30;;;;;;;12.31;40.35;102482.78;5070709;28;20063;-68
2021/10/23 08:17:56;;;;;;;5.05;0.40;;;;;;;13.29;37.53;102479.63;5071911;28;20052;-67
2021/10/23 08:20:22;;;;;;;5.78;0.28;;;;;;;13.90;35.84;102478.00;5057914;28;20040;-67
2021/10/23 08:22:48;;;;;;;3.88;0.22;;;;;;;14.85;35.13;102489.19;5044639;28;20040;-67
2021/10/23 08:25:13;;;;;;;0.82;0.10;;;;;;;15.35;34.35;102484.03;5063986;28;20028;-69
2021/10/23 08:27:41;;;;;;;2.10;0.20;;;;;;;15.28;33.42;102499.19;5074062;28;20032;-69
2021/10/23 08:30:09;;;;;;;2.60;0.30;;;;;;;14.76;34.74;102496.44;5073526;28;20794;-69
2021/10/23 08:32:35;;;;;;;3.25;0.20;;;;;;;12.74;36.91;102502.00;5077096;28;20074;-69
2021/10/23 08:35:01;;;;;;;5.32;0.35;;;;;;;12.13;39.33;102507.63;5059823;28;20074;-68
2021/10/23 08:37:27;;;;;;;2.72;0.65;;;;;;;12.81;39.16;102509.69;5063279;28;20043;-67
2021/10/23 08:39:52;;;;;;;3.10;0.20;;;;;;;12.14;39.70;102512.00;5066395;28;20032;-68
2021/10/23 08:42:18;;;;;;;2.28;0.15;;;;;;;10.64;42.93;102512.81;5061055;28;20036;-67
2021/10/23 08:44:45;;;;;;;6.10;0.95;;;;;;;11.01;43.41;102515.75;5076886;28;20070;-68
2021/10/23 08:47:13;;;;;;;6.28;0.40;;;;;;;11.80;40.27;102509.19;5062558;28;20048;-68
2021/10/23 08:49:39;;;;;;;3.70;0.30;;;;;;;11.23;41.91;102515.41;5059753;28;20092;-70
2021/10/23 08:52:05;;;;;;;4.00;0.32;;;;;;;11.56;40.46;102515.72;5067120;28;20052;-67
2021/10/23 08:54:32;;;;;;;3.45;0.45;;;;;;;12.37;39.98;102508.03;5059136;28;20078;-68
2021/10/23 08:57:01;;;;;;;1.77;0.20;;;;;;;11.95;40.30;102505.41;5057348;28;20046;-68
2021/10/23 08:59:28;;;;;;;2.83;0.20;;;;;;;12.27;38.60;102503.00;5061278;28;20704;-68
2021/10/23 09:01:57;;;;;;;2.80;0.10;;;;;;;12.60;38.98;102508.41;5062741;28;20049;-69
2021/10/23 09:04:31;;;;;;;0.85;0.20;;;;;;;12.50;37.96;102510.34;5046098;28;20032;-68
2021/10/23 09:07:13;;;;;;;4.38;0.40;;;;;;;12.72;37.78;102509.91;5073391;28;20028;-68
2021/10/23 09:10:05;;;;;;;2.38;0.10;;;;;;;12.88;36.12;102523.53;5066001;28;20055;-69
2021/10/23 09:12:34;;;;;;;6.00;0.40;;;;;;;12.21;36.75;102513.59;5040055;28;20056;-68
2021/10/23 09:15:04;;;;;;;5.28;0.40;;;;;;;12.97;36.25;102518.06;5062140;28;20173;-68
2021/10/23 09:17:31;;;;;;;0.20;0.00;;;;;;;13.40;34.68;102519.59;5071481;28;20036;-68
2021/10/23 09:20:05;;;;;;;0.85;0.08;;;;;;;13.16;34.97;102517.59;5057713;28;20365;-68
2021/10/23 09:22:41;;;;;;;1.05;0.10;;;;;;;13.89;33.60;102509.56;5054921;28;20044;-68
2021/10/23 09:25:11;;;;;;;0.60;0.13;;;;;;;13.58;33.89;102522.69;5063899;28;20513;-69
2021/10/23 09:27:54;;;;;;;3.55;0.28;;;;;;;13.00;34.06;102523.22;5044978;28;20045;-68
2021/10/23 09:30:30;;;;;;;0.63;0.13;;;;;;;13.55;33.82;102518.34;5074962;28;20032;-67
2021/10/23 09:33:00;;;;;;;0.88;0.20;;;;;;;13.43;33.65;102514.28;5053744;28;20044;-67
2021/10/23 09:35:25;;;;;;;2.03;0.43;;;;;;;13.41;32.84;102518.72;5062087;28;20031;-67
2021/10/23 09:37:58;;;;;;;4.10;0.10;;;;;;;13.92;32.03;102523.50;5054366;28;20670;-69
2021/10/23 09:40:26;;;;;;;1.42;0.10;;;;;;;14.04;33.86;102524.06;5060657;28;20481;-68
2021/10/23 09:43:28;;;;;;;0.75;0.00;;;;;;;13.45;34.70;102528.25;5072707;28;20431;-69
2021/10/23 09:45:59;;;;;;;4.28;0.10;;;;;;;14.03;33.76;102530.22;5040871;28;20047;-69
2021/10/23 09:49:01;;;;;;;0.28;0.00;;;;;;;14.13;34.17;102537.78;5053710;28;20045;-70
2021/10/23 09:51:29;;;;;;;1.50;0.10;;;;;;;14.73;33.54;102536.03;5073782;28;20032;-67
2021/10/23 09:54:00;;;;;;;0.82;0.05;;;;;;;14.74;32.34;102540.38;5071355;28;20075;-71
2021/10/23 09:56:28;;;;;;;3.55;0.30;;;;;;;14.66;32.51;102542.41;5076672;28;20059;-68
2021/10/23 09:58:55;;;;;;;1.83;0.10;;;;;;;14.17;32.26;102549.09;5070859;28;20044;-69
2021/10/23 10:01:25;;;;;;;1.25;0.10;;;;;;;14.37;32.53;102548.53;5043790;28;20032;-68
2021/10/23 10:04:05;;;;;;;1.13;0.10;;;;;;;14.19;33.15;102560.44;5051904;28;20613;-69
2021/10/23 10:06:47;;;;;;;0.50;0.00;;;;;;;14.47;32.54;102563.13;5059606;28;20101;-69
2021/10/23 10:09:14;;;;;;;7.18;0.30;;;;;;;14.46;31.75;102565.84;5068545;28;20036;-69
2021/10/23 10:11:40;;;;;;;3.13;0.00;;;;;;;14.95;30.60;102561.69;5073834;28;20070;-69
2021/10/23 10:14:10;;;;;;;2.13;0.10;;;;;;;14.35;31.66;102556.44;5045893;28;20040;-69
2021/10/23 10:16:37;;;;;;;3.03;0.10;;;;;;;14.65;31.69;102566.97;5051612;28;20043;-70
2021/10/23 10:19:03;;;;;;;1.85;0.10;;;;;;;15.14;31.19;102565.44;5071590;28;20046;-69
2021/10/23 10:21:34;;;;;;;3.92;0.45;;;;;;;15.25;32.34;102574.81;5058724;28;20088;-67
2021/10/23 10:23:59;;;;;;;3.42;0.10;;;;;;;15.03;31.55;102578.09;5042466;28;20043;-69
2021/10/23 10:26:26;;;;;;;3.22;0.10;;;;;;;14.67;32.28;102582.75;5076320;28;20031;-69
2021/10/23 10:32:10;;;;;;;2.67;0.00;;;;;;;15.66;30.91;102578.69;5070570;28;20052;-68
2021/10/23 10:35:33;;;;;;;1.23;0.10;;;;;;;15.66;30.95;102581.31;5058969;28;20427;-69
2021/10/23 10:42:52;;;;;;;1.10;0.25;;;;;;;14.55;34.30;102591.88;5062109;28;20063;-68
2021/10/23 10:45:26;;;;;;;1.95;0.17;;;;;;;14.04;35.51;102600.31;5043144;28;20028;-67
2021/10/23 10:48:08;;;;;;;5.00;0.25;;;;;;;13.70;35.59;102595.94;5059924;28;20144;-69
2021/10/23 10:50:42;;;;;;;7.20;0.43;;;;;;;12.76;36.63;102592.00;5060715;28;20036;-68
2021/10/23 10:53:27;;;;;;;6.43;0.65;;;;;;;12.54;36.55;102589.84;5044848;28;20125;-70
2021/10/23 10:56:06;;;;;;;3.25;0.10;;;;;;;13.39;35.78;102591.44;5054105;28;20032;-71
2021/10/23 10:58:52;;;;;;;4.53;0.30;;;;;;;14.43;34.61;102589.59;5070041;28;20052;-69
2021/10/23 11:01:22;;;;;;;3.65;0.10;;;;;;;13.91;35.11;102590.09;5050808;28;20078;-69
2021/10/23 11:03:51;;;;;;;1.65;0.10;;;;;;;13.38;36.15;102584.44;5058121;28;20437;-69
2021/10/23 11:06:35;;;;;;;2.83;0.20;;;;;;;14.43;35.09;102587.81;5052612;28;20079;-69
2021/10/23 11:09:15;;;;;;;4.93;0.43;;;;;;;14.72;33.02;102584.34;5041438;28;20048;-68
2021/10/23 11:11:52;;;;;;;3.03;0.10;;;;;;;13.96;34.50;102591.75;5071239;28;20024;-70
2021/10/23 11:14:24;;;;;;;5.97;0.30;;;;;;;13.95;34.70;102596.16;5066537;28;20098;-68
2021/10/23 11:17:04;;;;;;;2.83;0.28;;;;;;;13.09;35.92;102593.91;5044715;28;20032;-68
2021/10/23 11:19:31;;;;;;;4.07;0.57;;;;;;;13.60;35.49;102597.06;5070293;28;20062;-67
2021/10/23 11:22:30;;;;;;;6.22;0.40;;;;;;;12.75;36.27;102593.78;5034878;28;20592;-66
2021/10/23 11:25:05;;;;;;;3.90;0.68;;;;;;;12.68;37.42;102603.50;5043290;28;20103;-67
2021/10/23 11:27:40;;;;;;;6.22;0.95;;;;;;;13.00;36.61;102598.47;5058822;28;20048;-69
2021/10/23 11:30:11;;;;;;;4.78;0.10;;;;;;;13.74;35.75;102602.81;5070174;28;20035;-68
2021/10/23 11:32:39;;;;;;;2.03;0.20;;;;;;;13.61;35.62;102611.94;5070100;28;20048;-67
2021/10/23 11:35:06;;;;;;;5.82;1.02;;;;;;;13.17;36.06;102617.34;5073013;28;20046;-69
2021/10/23 11:37:32;;;;;;;1.10;0.10;;;;;;;11.63;38.21;102615.09;5068212;28;20647;-68
2021/10/23 11:40:02;;;;;;;4.45;0.35;;;;;;;12.48;38.19;102613.56;5066356;28;20050;-67